Flight Track Log - Related Links

Times and Time Zones

All times are in EDT time to prevent confusion due to time zone crossing. See the PDT4207 flight status page for this flight to view local times or setup timezone preferences in your user account.

Time Position Orientation Groundspeed Altitude Reporting Facility
EDT Latitude Longitude Course Direction KTS MPH feet Rate Location/Type
Tue 09:34:55 PM 39.9000 -75.2500 294° West 124 143 700  Level Philadelphia TRACON
Tue 09:35:43 PM 39.9000 -75.2833 270° West 126 145 2,000 1,471 Climbing Philadelphia TRACON
Tue 09:36:37 PM 39.9167 -75.3167 303° West 136 157 3,200 1,263 Climbing Philadelphia TRACON
Tue 09:37:00 PM 40.0653 -75.2999 323° Northwest  Level Estimated
Tue 09:37:37 PM 39.9333 -75.3667 294° West 139 160 4,400  Level Philadelphia TRACON
Tue 09:38:00 PM 40.1296 -75.3197 311° West  Level Estimated
Tue 09:38:16 PM 39.9525 -75.3797 332° Northwest 152 175 5,300  Level New York Center
Tue 09:39:00 PM 40.1940 -75.3395 311° West  Level Estimated
Tue 09:39:16 PM 39.9897 -75.3931 345° North 158 182 6,300  Level New York Center
Tue 09:40:00 PM 40.2210 -75.4184 294° West  Level FlightAware Approximate
Tue 09:40:16 PM 40.0322 -75.4203 334° Northwest 151 174 7,700  Level New York Center
Tue 09:41:16 PM 40.0581 -75.4519 317° Northwest 151 174 8,800 1,200 Climbing New York Center
Tue 09:42:16 PM 40.1006 -75.4872 328° Northwest 159 183 10,100 1,200 Climbing New York Center
Tue 09:43:16 PM 40.1375 -75.5033 342° North 173 199 11,200 950 Climbing New York Center
Tue 09:44:16 PM 40.1844 -75.5283 338° Northwest 173 199 12,000 400 Climbing New York Center
Tue 09:45:16 PM 40.2331 -75.5614 333° Northwest 186 214 12,000  Level New York Center
Tue 09:46:16 PM 40.2683 -75.6183 309° West 206 237 12,000  Level New York Center
Tue 09:47:16 PM 40.3308 -75.6692 328° Northwest 228 262 12,000  Level New York Center
Tue 09:48:16 PM 40.3850 -75.7167 326° Northwest 238 274 12,000  Level New York Center
Tue 09:49:16 PM 40.4372 -75.7667 324° Northwest 243 280 12,000 -50 Level New York Center
Tue 09:50:16 PM 40.4894 -75.8114 327° Northwest 243 280 11,900 -50 Descending New York Center
Tue 09:51:16 PM 40.5500 -75.8539 332° Northwest 243 280 11,900 50 Level New York Center
Tue 09:52:16 PM 40.6214 -75.8894 339° North 243 280 12,000 50 Climbing New York Center
Tue 09:53:16 PM 40.6847 -75.9214 339° North 248 285 12,000  Level New York Center
Tue 09:54:16 PM 40.7478 -75.9592 336° Northwest 248 285 12,000  Level New York Center
Tue 09:55:16 PM 40.8086 -75.9967 335° Northwest 248 285 12,000  Level New York Center
Tue 09:56:16 PM 40.8736 -76.0319 338° Northwest 248 285 12,000 -50 Level New York Center
Tue 09:57:16 PM 40.9331 -76.0528 345° North 248 285 11,900  Descending New York Center
Tue 09:58:16 PM 40.9964 -76.0853 339° North 243 280 12,000 50 Climbing New York Center
Tue 09:59:16 PM 41.0592 -76.1206 337° Northwest 243 280 12,000  Level New York Center
Tue 10:00:16 PM 41.1286 -76.1508 342° North 243 280 12,000 -50 Level New York Center
Tue 10:01:16 PM 41.1897 -76.1858 337° Northwest 243 280 11,900  Descending New York Center
Tue 10:02:16 PM 41.2506 -76.2183 338° Northwest 243 280 12,000  Climbing New York Center
Tue 10:03:16 PM 41.3161 -76.1989 13° North 237 273 11,900  Descending New York Center
Tue 10:04:16 PM 41.3872 -76.1908 North 254 292 12,000 50 Climbing New York Center
Tue 10:05:16 PM 41.4642 -76.1969 357° North 254 292 12,000 -250 Level New York Center
Tue 10:06:16 PM 41.5372 -76.1889 North 254 292 11,500 -600 Descending New York Center
Tue 10:07:16 PM 41.6147 -76.1842 North 260 299 10,800 -700 Descending New York Center
Tue 10:08:16 PM 41.6839 -76.1731 North 272 313 10,100 -1,000 Descending New York Center
Tue 10:09:16 PM 41.7686 -76.1411 16° North 277 319 8,800 -1,150 Descending New York Center
Tue 10:10:16 PM 41.8386 -76.1106 18° North 272 313 7,800 -1,050 Descending New York Center
Tue 10:11:16 PM 41.9064 -76.0881 14° North 255 293 6,700 -1,050 Descending New York Center
Tue 10:12:16 PM 41.9636 -76.0619 19° North 243 280 5,700 -1,050 Descending New York Center
Tue 10:13:16 PM 42.0297 -76.0283 21° North 248 285 4,600 -1,000 Descending New York Center
Tue 10:14:16 PM 42.0961 -75.9861 25° Northeast 237 273 3,700 -800 Descending New York Center
Tue 10:15:16 PM 42.1350 -75.9556 30° Northeast 201 231 3,000 -700 Descending New York Center
Tue 10:16:16 PM 42.1706 -75.9500 North 153 176 2,300 -500 Descending New York Center
Tue 10:17:16 PM 42.2042 -75.9442 North 126 145 2,000 -300 Descending New York Center

Login

Don't have an account? Register now (free) for customized features, flight alerts, and more!